Time;durP1;ratioP1;P1;durP2;ratioP2;P2;SDS_P1;SDS_P2;PMS_P1;PMS_P2;Temp;Humidity;BMP_temperature;BMP_pressure;BME280_temperature;BME280_humidity;BME280_pressure;Samples;Min_cycle;Max_cycle;Signal;HPM_P1;HPM_P2
2023/04/12 00:02:07;;;;;;;;;4.67;4.67;;;;;12.85;100.00;100024.69;5081669;28;45351;-82
2023/04/12 00:04:33;;;;;;;;;5.33;5.33;;;;;12.94;100.00;100019.94;5081899;28;45318;-82
2023/04/12 00:06:59;;;;;;;;;3.00;3.00;;;;;13.13;100.00;100044.94;5081499;27;45528;-82
2023/04/12 00:09:29;;;;;;;;;6.00;6.00;;;;;13.00;100.00;100017.25;5080408;28;47680;-81
2023/04/12 00:11:55;;;;;;;;;4.00;4.00;;;;;12.95;100.00;100002.91;5081437;28;45256;-82
2023/04/12 00:14:21;;;;;;;;;4.67;4.67;;;;;12.84;100.00;99983.84;5081999;27;45325;-82
2023/04/12 00:16:46;;;;;;;;;3.67;3.67;;;;;12.93;100.00;99992.44;5080398;28;45272;-82
2023/04/12 00:19:11;;;;;;;;;4.33;4.33;;;;;13.00;100.00;99998.59;5081273;28;46536;-83
2023/04/12 00:21:37;;;;;;;;;4.00;3.00;;;;;12.99;100.00;100004.16;5080658;28;45265;-83
2023/04/12 00:24:02;;;;;;;;;3.67;3.67;;;;;13.12;100.00;99995.28;5081629;27;45698;-83
2023/04/12 00:26:27;;;;;;;;;6.67;5.67;;;;;13.05;100.00;99983.81;5081285;28;45272;-82
2023/04/12 00:28:53;;;;;;;;;4.00;3.67;;;;;13.13;100.00;99989.75;5079831;28;48340;-81
2023/04/12 00:31:18;;;;;;;;;7.33;5.00;;;;;13.13;100.00;99983.59;5081370;28;45243;-82
2023/04/12 00:33:43;;;;;;;;;3.00;2.00;;;;;13.08;100.00;99984.22;5081442;27;45659;-82
2023/04/12 00:36:09;;;;;;;;;6.00;6.00;;;;;13.06;100.00;99969.44;5079302;28;46377;-82
2023/04/12 00:38:35;;;;;;;;;5.00;4.00;;;;;13.06;100.00;99967.63;5079951;28;47053;-82
2023/04/12 00:41:01;;;;;;;;;4.33;4.33;;;;;13.15;100.00;99984.19;5081124;28;45270;-82
2023/04/12 00:43:27;;;;;;;;;4.67;4.33;;;;;13.12;100.00;99963.28;5081150;27;45312;-83
2023/04/12 00:45:55;;;;;;;;;3.67;3.67;;;;;13.12;100.00;99942.75;5080943;27;45413;-83
2023/04/12 00:48:22;;;;;;;;;4.33;4.33;;;;;13.10;100.00;99955.50;5079595;28;48289;-82
2023/04/12 00:50:47;;;;;;;;;3.67;3.67;;;;;13.06;100.00;99943.59;5080888;27;45293;-82
2023/04/12 00:53:13;;;;;;;;;4.00;4.00;;;;;13.24;100.00;99958.94;5080933;27;45294;-82
2023/04/12 00:55:44;;;;;;;;;5.33;5.33;;;;;13.30;100.00;99959.09;5079673;28;47329;-82
2023/04/12 00:58:09;;;;;;;;;6.00;5.00;;;;;13.29;100.00;99942.25;5079348;28;46982;-82
2023/04/12 01:00:35;;;;;;;;;5.33;4.33;;;;;13.31;100.00;99934.03;5080700;27;45393;-83
2023/04/12 01:03:02;;;;;;;;;2.67;2.00;;;;;13.28;100.00;99908.63;5080758;27;45485;-82
2023/04/12 01:05:29;;;;;;;;;7.33;4.67;;;;;13.32;100.00;99915.16;5080413;28;45248;-82
2023/04/12 01:08:16;;;;;;;;;5.67;4.00;;;;;13.40;100.00;99916.78;5061307;28;47036;-82
2023/04/12 01:10:45;;;;;;;;;6.33;5.00;;;;;13.42;100.00;99892.53;5062055;28;45659;-82
2023/04/12 01:13:28;;;;;;;;;3.67;3.67;;;;;13.47;100.00;99898.88;5080791;28;45343;-83
2023/04/12 01:16:00;;;;;;;;;4.00;4.00;;;;;13.36;100.00;99884.38;5079225;28;47602;-82
2023/04/12 01:18:29;;;;;;;;;7.00;5.00;;;;;13.30;100.00;99860.38;5078881;28;47743;-82
2023/04/12 01:21:07;;;;;;;;;4.00;4.00;;;;;13.28;100.00;99875.75;5080453;28;45347;-81
2023/04/12 01:23:57;;;;;;;;;5.00;4.00;;;;;13.35;100.00;99865.91;5079140;28;45249;-81
2023/04/12 01:26:31;;;;;;;;;3.67;3.67;;;;;13.35;100.00;99825.88;5080247;28;45318;-81
2023/04/12 01:29:00;;;;;;;;;4.33;4.33;;;;;13.19;100.00;99814.66;5080107;28;45603;-81
2023/04/12 01:31:28;;;;;;;;;5.67;5.67;;;;;13.37;100.00;99842.47;5078892;28;45446;-81
2023/04/12 01:33:56;;;;;;;;;5.00;4.00;;;;;13.26;100.00;99831.44;5077959;28;45255;-82
2023/04/12 01:36:25;;;;;;;;;4.00;4.00;;;;;13.28;100.00;99823.22;5080021;27;45263;-82
2023/04/12 01:38:51;;;;;;;;;4.67;4.67;;;;;13.31;100.00;99828.13;5080067;27;45421;-82
2023/04/12 01:41:16;;;;;;;;;3.33;3.00;;;;;13.24;100.00;99825.53;5080225;27;45309;-81
2023/04/12 01:43:43;;;;;;;;;5.00;4.00;;;;;13.33;100.00;99834.09;5080236;27;45358;-82
2023/04/12 01:46:15;;;;;;;;;5.00;4.33;;;;;13.32;100.00;99815.63;5078726;28;47117;-82
2023/04/12 01:48:47;;;;;;;;;3.67;3.67;;;;;13.32;100.00;99807.63;5080002;27;46438;-83
2023/04/12 01:51:30;;;;;;;;;4.33;3.00;;;;;13.34;100.00;99798.34;5080069;27;45382;-80
2023/04/12 01:54:09;;;;;;;;;5.33;5.33;;;;;13.18;100.00;99777.53;5078871;28;45251;-83
2023/04/12 01:56:36;;;;;;;;;4.67;3.67;;;;;13.27;100.00;99784.25;5079886;27;45406;-83
2023/04/12 01:59:03;;;;;;;;;4.00;4.00;;;;;13.28;100.00;99769.84;5078601;28;48361;-83
2023/04/12 02:01:29;;;;;;;;;6.00;6.00;;;;;13.30;100.00;99769.66;5078846;28;46039;-83
2023/04/12 02:03:58;;;;;;;;;2.33;2.33;;;;;13.29;100.00;99762.69;5079928;27;45279;-82
2023/04/12 02:06:25;;;;;;;;;6.33;5.00;;;;;13.29;100.00;99757.34;5078373;28;46421;-83
2023/04/12 02:08:57;;;;;;;;;5.67;4.67;;;;;13.30;100.00;99756.31;5079818;27;45542;-82
2023/04/12 02:11:22;;;;;;;;;3.67;3.67;;;;;13.24;100.00;99756.16;5079646;28;45307;-82
2023/04/12 02:13:48;;;;;;;;;4.00;4.00;;;;;13.08;100.00;99719.31;5079842;28;45380;-82
2023/04/12 02:16:13;;;;;;;;;5.33;5.33;;;;;13.20;100.00;99760.25;5078563;28;46274;-81
2023/04/12 02:18:40;;;;;;;;;5.00;5.00;;;;;13.16;100.00;99743.06;5078398;28;47033;-81
2023/04/12 02:21:05;;;;;;;;;5.00;5.00;;;;;13.05;100.00;99731.22;5079821;28;45307;-81
2023/04/12 02:23:31;;;;;;;;;5.33;4.00;;;;;13.12;100.00;99716.00;5079584;27;45394;-82
2023/04/12 02:25:56;;;;;;;;;8.33;5.33;;;;;13.33;100.00;99726.53;5079326;28;48778;-82
2023/04/12 02:28:22;;;;;;;;;3.67;3.67;;;;;13.34;100.00;99726.31;5079502;28;45429;-82
2023/04/12 02:30:47;;;;;;;;;4.67;4.67;;;;;13.35;100.00;99713.78;5078363;28;45246;-82
2023/04/12 02:33:14;;;;;;;;;6.00;5.00;;;;;13.30;100.00;99700.25;5078337;28;45233;-82
2023/04/12 02:35:40;;;;;;;;;5.00;2.67;;;;;13.22;100.00;99706.69;5079408;28;45492;-83
2023/04/12 02:38:07;;;;;;;;;5.33;3.67;;;;;13.36;100.00;99708.22;5078190;28;47776;-83
2023/04/12 02:40:41;;;;;;;;;4.00;3.33;;;;;13.34;100.00;99696.94;5078050;28;45870;-84
2023/04/12 02:43:07;;;;;;;;;4.00;4.00;;;;;13.19;100.00;99686.59;5079556;27;45361;-81
2023/04/12 02:45:32;;;;;;;;;4.00;4.00;;;;;13.23;100.00;99674.44;5082733;27;45333;-83
2023/04/12 02:47:57;;;;;;;;;6.00;5.00;;;;;13.42;100.00;99671.84;5083297;27;46111;-82
2023/04/12 02:50:23;;;;;;;;;6.00;5.00;;;;;13.42;100.00;99677.19;5081446;28;45411;-81
2023/04/12 02:52:48;;;;;;;;;5.00;4.67;;;;;13.45;100.00;99667.91;5081395;28;45382;-82
2023/04/12 02:55:13;;;;;;;;;6.33;4.67;;;;;13.26;100.00;99642.00;5081398;28;47148;-82
2023/04/12 02:57:40;;;;;;;;;10.00;6.00;;;;;13.22;100.00;99643.47;5082571;27;45437;-82
2023/04/12 03:00:10;;;;;;;;;6.00;5.00;;;;;13.36;100.00;99662.03;5082817;28;45356;-82
2023/04/12 03:02:36;;;;;;;;;5.33;5.33;;;;;13.51;100.00;99643.03;5081358;28;45328;-81
2023/04/12 03:05:02;;;;;;;;;4.67;4.00;;;;;13.45;100.00;99628.69;5081220;28;47527;-81
2023/04/12 03:07:29;;;;;;;;;6.00;6.00;;;;;13.59;100.00;99636.59;5082460;27;46104;-82
2023/04/12 03:09:54;;;;;;;;;5.33;5.33;;;;;13.54;100.00;99621.25;5082655;27;45369;-81
2023/04/12 03:12:20;;;;;;;;;7.00;6.00;;;;;13.68;100.00;99624.56;5081535;28;45281;-81
2023/04/12 03:14:45;;;;;;;;;4.00;4.00;;;;;13.51;100.00;99608.34;5081742;28;45984;-82
2023/04/12 03:17:10;;;;;;;;;6.00;5.67;;;;;13.39;100.00;99598.34;5082643;28;46067;-81
2023/04/12 03:19:36;;;;;;;;;4.33;4.33;;;;;13.65;100.00;99621.56;5082872;28;45315;-81
2023/04/12 03:22:03;;;;;;;;;6.00;5.00;;;;;13.58;100.00;99610.94;5081307;28;45300;-81
2023/04/12 03:24:28;;;;;;;;;4.67;4.67;;;;;13.67;100.00;99617.59;5081113;28;46018;-82
2023/04/12 03:26:54;;;;;;;;;9.00;6.67;;;;;13.56;100.00;99595.13;5082140;27;45577;-82
2023/04/12 03:29:19;;;;;;;;;5.00;4.33;;;;;13.45;100.00;99580.66;5082164;28;45275;-82
2023/04/12 03:31:44;;;;;;;;;7.00;5.00;;;;;13.57;100.00;99598.63;5081224;28;45185;-83
2023/04/12 03:34:10;;;;;;;;;5.33;5.33;;;;;13.73;100.00;99600.72;5082493;28;45290;-83
2023/04/12 03:36:36;;;;;;;;;6.33;5.33;;;;;13.96;100.00;99588.53;5080726;28;47411;-82
2023/04/12 03:39:02;;;;;;;;;4.00;3.00;;;;;13.73;100.00;99590.03;5081444;28;45399;-81
2023/04/12 03:41:27;;;;;;;;;5.67;5.00;;;;;13.66;100.00;99583.13;5081127;28;45386;-82
2023/04/12 03:43:53;;;;;;;;;4.00;4.00;;;;;13.75;100.00;99592.47;5082089;27;45564;-81
2023/04/12 03:46:18;;;;;;;;;4.00;4.00;;;;;13.53;100.00;99552.88;5080916;28;46860;-83
2023/04/12 03:48:44;;;;;;;;;3.00;3.00;;;;;13.67;100.00;99577.56;5081660;28;45423;-83
2023/04/12 03:51:10;;;;;;;;;4.33;4.33;;;;;13.79;100.00;99592.81;5082273;28;45396;-84
2023/04/12 03:53:37;;;;;;;;;5.00;3.33;;;;;13.80;100.00;99595.28;5080912;28;46280;-84
2023/04/12 03:56:02;;;;;;;;;3.00;3.00;;;;;13.69;100.00;99588.03;5080472;27;46373;-83
2023/04/12 03:58:27;;;;;;;;;6.00;5.00;;;;;13.74;100.00;99617.56;5073587;28;45220;-83
2023/04/12 04:00:53;;;;;;;;;3.00;2.00;;;;;13.77;100.00;99619.78;5063710;28;45237;-83
2023/04/12 04:03:18;;;;;;;;;5.00;5.00;;;;;13.80;100.00;99627.31;5063599;28;46158;-83
2023/04/12 04:05:44;;;;;;;;;5.33;4.00;;;;;13.94;100.00;99649.34;5081929;28;45345;-83
2023/04/12 04:08:09;;;;;;;;;1.00;1.00;;;;;13.85;100.00;99626.66;5063797;28;45202;-82
2023/04/12 04:10:35;;;;;;;;;1.00;0.00;;;;;13.84;100.00;99641.06;5082809;28;45209;-81
2023/04/12 04:13:00;;;;;;;;;1.00;0.00;;;;;13.81;100.00;99645.00;5060231;28;46341;-81
2023/04/12 04:15:26;;;;;;;;;2.00;0.00;;;;;13.67;100.00;99641.63;5061807;28;45667;-80
2023/04/12 04:17:51;;;;;;;;;0.33;0.33;;;;;13.55;100.00;99619.38;5061424;28;45403;-81
2023/04/12 04:20:17;;;;;;;;;1.00;1.00;;;;;13.61;100.00;99634.50;5042778;28;45340;-81
2023/04/12 04:22:47;;;;;;;;;0.00;0.00;;;;;13.56;100.00;99635.16;5043063;28;46123;-82
2023/04/12 04:25:13;;;;;;;;;1.00;1.00;;;;;13.41;100.00;99611.47;5062540;28;46354;-82
2023/04/12 04:27:40;;;;;;;;;0.67;0.67;;;;;13.47;100.00;99626.59;5063988;28;45198;-81
2023/04/12 04:30:06;;;;;;;;;0.67;0.00;;;;;13.52;100.00;99609.97;5078195;28;45213;-81
2023/04/12 04:32:32;;;;;;;;;0.00;0.00;;;;;13.62;100.00;99612.13;5084742;27;45476;-81
2023/04/12 04:34:58;;;;;;;;;0.33;0.00;;;;;13.61;100.00;99602.47;5085055;28;47318;-81
2023/04/12 04:37:29;;;;;;;;;0.33;0.00;;;;;13.71;100.00;99610.78;5085825;27;45558;-81
2023/04/12 04:39:54;;;;;;;;;0.00;0.00;;;;;13.73;100.00;99606.03;5090136;27;45268;-81
2023/04/12 04:42:20;;;;;;;;;0.00;0.00;;;;;13.71;100.00;99592.09;5087772;27;45296;-81
2023/04/12 04:44:47;;;;;;;;;0.00;0.00;;;;;13.74;100.00;99591.66;5085187;28;47240;-81
2023/04/12 04:47:12;;;;;;;;;0.00;0.00;;;;;13.81;100.00;99588.91;5083905;28;45358;-82
2023/04/12 04:49:37;;;;;;;;;0.00;0.00;;;;;13.84;100.00;99609.00;5085640;27;45636;-82
2023/04/12 04:52:03;;;;;;;;;0.67;0.67;;;;;13.71;100.00;99597.44;5083267;28;46215;-82
2023/04/12 04:54:29;;;;;;;;;0.00;0.00;;;;;13.73;100.00;99605.22;5083363;28;45451;-82
2023/04/12 04:56:56;;;;;;;;;0.00;0.00;;;;;13.69;100.00;99602.19;5084863;27;45312;-82
2023/04/12 04:59:22;;;;;;;;;0.00;0.00;;;;;13.72;100.00;99612.44;5084318;28;45300;-81
2023/04/12 05:01:48;;;;;;;;;0.00;0.00;;;;;13.68;100.00;99616.56;5084795;28;46277;-81
2023/04/12 05:04:13;;;;;;;;;1.00;1.00;;;;;13.82;100.00;99625.25;5084913;28;45244;-82
2023/04/12 05:06:38;;;;;;;;;0.00;0.00;;;;;13.76;100.00;99615.47;5083933;28;55901;-79
2023/04/12 05:09:04;;;;;;;;;0.00;0.00;;;;;13.86;100.00;99617.63;5091910;27;45262;-81
2023/04/12 05:11:29;;;;;;;;;1.00;0.00;;;;;13.86;100.00;99628.31;5083734;27;45217;-82
2023/04/12 05:13:55;;;;;;;;;1.00;0.00;;;;;13.73;100.00;99611.38;5080881;28;47205;-82
2023/04/12 05:16:20;;;;;;;;;0.00;0.00;;;;;13.72;100.00;99609.75;5081257;28;45169;-81
2023/04/12 05:18:46;;;;;;;;;0.00;0.00;;;;;13.65;100.00;99602.88;5055230;28;45397;-81
2023/04/12 05:21:11;;;;;;;;;0.00;0.00;;;;;13.69;100.00;99604.03;5061093;28;46118;-80
2023/04/12 05:23:41;;;;;;;;;0.00;0.00;;;;;13.73;100.00;99603.38;5041135;28;47100;-80
2023/04/12 05:26:07;;;;;;;;;0.00;0.00;;;;;13.70;100.00;99598.47;5065439;28;45215;-80
2023/04/12 05:28:32;;;;;;;;;1.00;1.00;;;;;13.68;100.00;99575.72;5069351;28;45824;-82
2023/04/12 05:30:57;;;;;;;;;0.00;0.00;;;;;13.75;100.00;99574.59;5085891;27;45421;-80
2023/04/12 05:33:23;;;;;;;;;2.00;1.00;;;;;13.58;100.00;99547.69;5088694;28;47069;-80
2023/04/12 05:35:48;;;;;;;;;0.00;0.00;;;;;13.71;100.00;99560.06;5086262;27;45255;-77
2023/04/12 05:38:13;;;;;;;;;0.00;0.00;;;;;13.58;100.00;99554.88;5080939;28;45274;-80
2023/04/12 05:40:40;;;;;;;;;1.67;1.67;;;;;13.69;100.00;99575.50;5080817;28;52441;-78
2023/04/12 05:43:06;;;;;;;;;0.00;0.00;;;;;13.75;100.00;99592.47;5080337;28;47923;-79
2023/04/12 05:45:31;;;;;;;;;0.67;0.67;;;;;13.87;100.00;99590.69;5077645;28;45283;-78
2023/04/12 05:47:56;;;;;;;;;0.00;0.00;;;;;13.78;100.00;99588.53;5080333;28;45461;-78
2023/04/12 05:50:22;;;;;;;;;1.33;1.33;;;;;13.99;100.00;99605.94;5078288;28;45469;-77
2023/04/12 05:52:47;;;;;;;;;3.00;1.33;;;;;13.65;100.00;99570.81;5078919;27;46048;-78
2023/04/12 05:55:13;;;;;;;;;1.00;1.00;;;;;14.01;100.00;99614.56;5067746;28;45522;-78
2023/04/12 05:57:39;;;;;;;;;0.33;0.33;;;;;13.92;100.00;99598.00;5069679;28;45446;-80
2023/04/12 06:00:17;;;;;;;;;2.00;2.00;;;;;13.99;100.00;99600.59;5068461;28;45298;-78
2023/04/12 06:02:44;;;;;;;;;0.67;0.67;;;;;14.10;100.00;99607.06;5076214;28;45537;-77
2023/04/12 06:05:12;;;;;;;;;1.00;1.00;;;;;14.13;100.00;99620.75;5061418;28;45255;-77
2023/04/12 06:07:38;;;;;;;;;0.00;0.00;;;;;14.14;100.00;99621.59;5061689;28;45387;-78
2023/04/12 06:10:05;;;;;;;;;1.00;1.00;;;;;14.05;100.00;99613.06;5070400;28;45304;-78
2023/04/12 06:12:31;;;;;;;;;2.00;2.00;;;;;14.16;100.00;99608.81;5067548;28;45366;-77
2023/04/12 06:14:56;;;;;;;;;4.00;4.00;;;;;14.16;100.00;99638.22;5067263;28;45260;-78
2023/04/12 06:17:22;;;;;;;;;2.00;2.00;;;;;18.01;100.00;99655.66;5060551;28;45179;-76
2023/04/12 06:19:47;;;;;;;;;0.67;0.33;;;;;20.06;100.00;99728.78;5062267;28;51864;-76
2023/04/12 06:22:12;;;;;;;;;0.00;0.00;;;;;31.61;100.00;99754.53;5063937;28;50908;-75
2023/04/12 06:24:37;;;;;;;;;0.00;0.00;;;;;31.96;100.00;99670.91;5062094;28;45372;-77
2023/04/12 06:27:03;;;;;;;;;1.00;1.00;;;;;22.69;100.00;99675.03;5066445;28;51035;-75
2023/04/12 06:29:28;;;;;;;;;0.00;0.00;;;;;21.36;100.00;99662.56;5072690;28;45525;-75
2023/04/12 06:31:53;;;;;;;;;0.67;0.00;;;;;19.67;100.00;99665.19;5083243;28;51388;-75
2023/04/12 06:34:19;;;;;;;;;1.00;1.00;;;;;19.02;100.00;99671.50;5086051;28;45247;-77
2023/04/12 06:36:46;;;;;;;;;1.00;1.00;;;;;18.48;100.00;99681.25;5086585;27;45341;-75
2023/04/12 06:39:12;;;;;;;;;0.67;0.67;;;;;18.23;100.00;99682.56;5091864;27;45422;-76
2023/04/12 06:41:38;;;;;;;;;3.33;1.00;;;;;18.36;100.00;99669.81;5104700;27;46274;-76
2023/04/12 06:44:04;;;;;;;;;1.00;1.00;;;;;18.45;100.00;99689.00;5085617;27;45736;-77
2023/04/12 06:46:30;;;;;;;;;0.00;0.00;;;;;18.60;100.00;99674.88;5102996;27;45356;-78
2023/04/12 06:48:56;;;;;;;;;1.00;1.00;;;;;18.67;100.00;99695.16;5064806;28;46115;-79
2023/04/12 06:51:21;;;;;;;;;2.67;1.00;;;;;18.51;100.00;99698.75;5081354;28;47839;-80
2023/04/12 06:53:46;;;;;;;;;2.33;2.33;;;;;18.19;100.00;99686.03;5065870;28;45268;-84
2023/04/12 06:56:12;;;;;;;;;3.00;3.00;;;;;19.15;100.00;99693.69;5084126;28;45280;-79
2023/04/12 06:58:37;;;;;;;;;2.67;2.33;;;;;19.50;100.00;99673.47;5065279;28;54639;-80
2023/04/12 07:01:07;;;;;;;;;1.00;1.00;;;;;19.10;100.00;99661.34;5083471;28;45220;-80
2023/04/12 07:03:33;;;;;;;;;2.00;2.00;;;;;19.69;100.00;99662.25;5069370;28;45293;-79
2023/04/12 07:06:01;;;;;;;;;2.67;2.00;;;;;19.83;100.00;99661.78;5065377;28;45359;-82
2023/04/12 07:08:31;;;;;;;;;2.33;2.33;;;;;20.10;100.00;99666.22;5082837;28;45338;-81
2023/04/12 07:10:57;;;;;;;;;3.33;3.33;;;;;20.16;100.00;99666.00;5083197;28;45462;-80
2023/04/12 07:13:22;;;;;;;;;2.00;2.00;;;;;20.06;100.00;99672.16;5066248;28;45958;-81
2023/04/12 07:15:49;;;;;;;;;4.67;4.67;;;;;19.67;100.00;99688.66;5083031;28;45368;-79
2023/04/12 07:18:15;;;;;;;;;2.00;2.00;;;;;19.64;100.00;99649.56;5055033;28;46627;-78
2023/04/12 07:20:41;;;;;;;;;2.00;2.00;;;;;20.30;100.00;99673.59;5082359;28;45308;-79
2023/04/12 07:23:06;;;;;;;;;2.00;2.00;;;;;20.31;100.00;99677.91;5073311;28;45286;-78
2023/04/12 07:25:31;;;;;;;;;3.00;2.00;;;;;20.36;100.00;99679.81;5077267;28;52150;-78
2023/04/12 07:27:56;;;;;;;;;3.00;3.00;;;;;20.25;100.00;99682.47;5082170;28;45198;-77
2023/04/12 07:30:22;;;;;;;;;3.00;3.00;;;;;20.19;100.00;99688.91;5081433;28;51662;-78
2023/04/12 07:32:47;;;;;;;;;4.00;4.00;;;;;20.00;100.00;99688.56;5082263;27;45297;-79
2023/04/12 07:35:13;;;;;;;;;3.00;3.00;;;;;20.13;100.00;99692.66;5080935;28;45307;-78
2023/04/12 07:37:38;;;;;;;;;3.67;3.00;;;;;19.95;100.00;99686.63;5081999;28;45264;-78
2023/04/12 07:40:04;;;;;;;;;3.33;3.33;;;;;19.55;100.00;99670.00;5082103;27;45153;-78
2023/04/12 07:42:30;;;;;;;;;4.00;4.00;;;;;19.84;100.00;99660.72;5080140;28;46532;-78
2023/04/12 07:44:57;;;;;;;;;3.00;2.33;;;;;19.27;100.00;99661.19;5069590;27;45404;-78
2023/04/12 07:47:22;;;;;;;;;3.00;3.00;;;;;20.16;100.00;99670.56;5070252;28;45326;-76
2023/04/12 07:49:47;;;;;;;;;4.00;4.00;;;;;20.27;100.00;99661.44;5043785;28;47290;-78
2023/04/12 07:52:13;;;;;;;;;4.00;4.00;;;;;20.31;100.00;99642.81;5061501;28;45312;-77
2023/04/12 07:54:38;;;;;;;;;3.33;3.33;;;;;20.50;100.00;99626.94;5043642;28;45465;-79
2023/04/12 07:57:04;;;;;;;;;3.67;3.67;;;;;20.60;100.00;99638.81;5043059;28;45912;-78
2023/04/12 07:59:30;;;;;;;;;6.00;6.00;;;;;20.88;99.30;99652.88;5061629;28;45325;-78
2023/04/12 08:01:55;;;;;;;;;4.00;4.00;;;;;21.00;97.21;99639.13;5065848;28;45376;-78
2023/04/12 08:04:21;;;;;;;;;5.00;5.00;;;;;21.00;96.74;99636.41;5063211;28;45343;-76
2023/04/12 08:06:46;;;;;;;;;5.67;4.67;;;;;21.29;94.06;99643.97;5060180;28;46962;-78
2023/04/12 08:09:12;;;;;;;;;5.67;5.00;;;;;21.43;93.62;99630.69;5061461;28;45309;-77
2023/04/12 08:11:37;;;;;;;;;5.67;5.00;;;;;21.31;93.17;99612.09;5061347;28;45268;-78
2023/04/12 08:14:02;;;;;;;;;9.00;7.33;;;;;21.05;91.99;99614.81;5069190;28;45379;-80
2023/04/12 08:17:32;;;;;;;;;;;;;;;;;;;;;
2023/04/12 08:19:57;;;;;;;;;2.00;2.00;;;;;20.96;88.46;99648.84;5014448;28;75439;-78
2023/04/12 08:22:23;;;;;;;;;4.67;4.67;;;;;20.75;89.19;99638.03;5060665;28;52166;-79
2023/04/12 08:24:48;;;;;;;;;3.33;3.33;;;;;20.98;88.34;99642.09;5061894;28;45288;-77
2023/04/12 08:27:15;;;;;;;;;6.00;5.00;;;;;20.95;87.13;99653.44;5062313;28;45339;-77
2023/04/12 08:29:43;;;;;;;;;3.33;3.33;;;;;20.77;88.54;99660.97;5064283;28;47620;-76
2023/04/12 08:32:11;;;;;;;;;2.00;2.00;;;;;20.46;88.63;99655.53;5081426;27;45336;-78
2023/04/12 08:34:36;;;;;;;;;2.33;2.33;;;;;20.46;88.54;99668.22;5082610;27;45322;-76
2023/04/12 08:37:02;;;;;;;;;4.00;4.00;;;;;20.37;88.60;99657.13;5081690;27;45445;-78
2023/04/12 08:39:27;;;;;;;;;1.00;1.00;;;;;20.50;88.92;99670.09;5079900;28;47343;-77
2023/04/12 08:41:54;;;;;;;;;2.00;2.00;;;;;20.58;88.66;99665.25;5078850;28;45391;-75
2023/04/12 08:44:35;;;;;;;;;2.00;2.00;;;;;20.60;87.11;99666.63;5081055;28;45346;-77
2023/04/12 08:47:02;;;;;;;;;2.00;2.00;;;;;20.71;86.34;99677.44;5060758;28;46034;-77
2023/04/12 08:49:27;;;;;;;;;2.00;2.00;;;;;20.83;84.36;99688.78;5070230;28;45353;-77
2023/04/12 08:51:53;;;;;;;;;1.00;1.00;;;;;20.81;82.66;99686.34;5064225;28;45487;-76
2023/04/12 08:54:19;;;;;;;;;3.67;1.00;;;;;20.76;81.85;99658.53;5066334;28;45261;-76
2023/04/12 08:56:46;;;;;;;;;2.00;2.00;;;;;20.42;82.79;99678.75;5070963;28;45374;-76
2023/04/12 08:59:13;;;;;;;;;4.33;4.33;;;;;20.68;83.21;99692.25;5073063;28;45934;-80
2023/04/12 09:01:40;;;;;;;;;0.00;0.00;;;;;20.37;82.33;99693.03;5080884;28;45324;-80
2023/04/12 09:04:06;;;;;;;;;0.00;0.00;;;;;20.27;80.75;99715.41;5081258;28;45351;-76
2023/04/12 09:06:32;;;;;;;;;0.00;0.00;;;;;20.02;79.46;99689.94;5062264;28;46956;-75
2023/04/12 09:08:59;;;;;;;;;0.00;0.00;;;;;20.04;80.03;99695.06;5079096;28;46814;-77
2023/04/12 09:11:26;;;;;;;;;0.00;0.00;;;;;20.25;76.47;99716.72;5062543;28;45785;-75
2023/04/12 09:13:53;;;;;;;;;0.00;0.00;;;;;19.98;76.59;99706.88;5080719;28;45425;-77
2023/04/12 09:16:36;;;;;;;;;1.33;1.33;;;;;19.77;75.35;99702.19;5075433;28;46386;-75
2023/04/12 09:19:02;;;;;;;;;0.00;0.00;;;;;19.74;75.88;99708.09;5062922;28;46203;-78
2023/04/12 09:21:28;;;;;;;;;1.00;1.00;;;;;19.36;75.30;99707.34;5060562;28;45300;-80
2023/04/12 09:24:08;;;;;;;;;1.00;1.00;;;;;19.46;74.68;99710.09;5060105;28;45237;-79
2023/04/12 09:26:35;;;;;;;;;0.00;0.00;;;;;19.51;73.02;99718.22;5041831;28;46200;-78
2023/04/12 09:29:01;;;;;;;;;1.00;1.00;;;;;19.44;74.38;99714.94;5065832;28;45421;-79
2023/04/12 09:31:26;;;;;;;;;1.00;0.00;;;;;19.71;74.58;99715.88;5078944;28;45426;-82
2023/04/12 09:33:51;;;;;;;;;1.33;1.33;;;;;19.70;71.59;99703.50;5080740;27;45668;-79
2023/04/12 09:36:17;;;;;;;;;1.00;1.00;;;;;19.61;72.92;99713.97;5079930;27;46726;-79
2023/04/12 09:39:00;;;;;;;;;2.00;1.00;;;;;19.93;73.43;99726.53;5079063;28;48144;-77
2023/04/12 09:41:27;;;;;;;;;1.00;0.00;;;;;19.94;73.44;99717.38;5077795;28;45556;-78
2023/04/12 09:43:53;;;;;;;;;1.00;1.00;;;;;20.09;70.40;99734.72;5079239;28;45248;-78
2023/04/12 09:46:18;;;;;;;;;4.00;2.33;;;;;19.98;69.55;99731.13;5061802;28;46174;-79
2023/04/12 09:49:02;;;;;;;;;1.00;1.00;;;;;20.07;69.33;99737.69;5061046;28;47502;-80
2023/04/12 09:51:31;;;;;;;;;1.33;0.67;;;;;20.26;67.45;99731.84;5061296;28;45315;-82
2023/04/12 09:53:59;;;;;;;;;0.00;0.00;;;;;20.38;66.74;99742.41;5078970;28;45383;-79
2023/04/12 09:56:27;;;;;;;;;1.00;1.00;;;;;20.52;65.57;99745.41;5079393;27;45417;-85
2023/04/12 09:58:53;;;;;;;;;1.00;1.00;;;;;20.48;66.79;99737.03;5079539;28;46406;-80
2023/04/12 10:01:23;;;;;;;;;4.00;2.00;;;;;20.43;66.69;99718.94;5060745;28;46425;-81
2023/04/12 10:03:49;;;;;;;;;2.67;0.33;;;;;20.47;66.06;99734.63;5061259;28;45351;-79
2023/04/12 10:06:17;;;;;;;;;0.00;0.00;;;;;20.32;64.33;99725.38;5079815;28;45453;-81
2023/04/12 10:08:43;;;;;;;;;2.00;1.00;;;;;20.22;64.63;99728.03;5057921;28;47047;-81
2023/04/12 10:11:08;;;;;;;;;2.33;1.00;;;;;20.46;66.62;99746.47;5059439;28;45288;-79
2023/04/12 10:13:36;;;;;;;;;0.00;0.00;;;;;20.54;67.58;99737.88;5041734;28;45703;-80
2023/04/12 10:16:04;;;;;;;;;2.00;1.00;;;;;20.63;64.12;99741.69;5041311;28;46875;-78
2023/04/12 10:18:33;;;;;;;;;0.33;0.33;;;;;20.58;63.69;99748.94;5041214;28;48432;-79
2023/04/12 10:20:59;;;;;;;;;2.33;1.00;;;;;20.58;63.14;99740.81;5059308;28;45226;-79
2023/04/12 10:23:25;;;;;;;;;0.00;0.00;;;;;20.91;63.45;99739.59;5059879;28;45163;-79
2023/04/12 10:25:52;;;;;;;;;1.33;1.33;;;;;20.78;60.85;99734.69;5059721;28;45231;-78
2023/04/12 10:28:21;;;;;;;;;0.33;0.33;;;;;20.78;62.45;99742.78;5060097;28;45399;-78
2023/04/12 10:30:49;;;;;;;;;3.00;3.00;;;;;20.54;62.50;99735.16;5078528;28;45311;-80
2023/04/12 10:33:16;;;;;;;;;2.00;2.00;;;;;20.67;63.55;99729.25;5079904;27;45230;-79
2023/04/12 10:35:48;;;;;;;;;1.00;0.33;;;;;20.94;60.17;99716.63;5081654;27;45568;-78
2023/04/12 10:38:14;;;;;;;;;0.00;0.00;;;;;20.97;61.54;99744.97;5081803;27;45529;-80
2023/04/12 10:41:10;;;;;;;;;0.00;0.00;;;;;21.48;59.06;99741.47;5079063;28;45292;-80
2023/04/12 10:43:36;;;;;;;;;1.00;1.00;;;;;21.77;61.27;99737.41;5079893;27;45327;-80
2023/04/12 10:46:05;;;;;;;;;0.33;0.33;;;;;22.26;60.23;99730.47;5080473;27;45538;-78
2023/04/12 10:48:35;;;;;;;;;0.00;0.00;;;;;22.63;59.19;99743.84;5078277;28;47409;-82
2023/04/12 10:51:22;;;;;;;;;0.00;0.00;;;;;23.00;56.99;99733.59;5078350;28;45588;-79
2023/04/12 10:53:48;;;;;;;;;0.00;0.00;;;;;22.92;56.45;99743.13;5079614;28;45373;-81
2023/04/12 10:56:38;;;;;;;;;0.33;0.33;;;;;22.83;54.00;99742.91;5079001;27;45509;-80
2023/04/12 10:59:05;;;;;;;;;0.33;0.00;;;;;22.78;53.08;99749.16;5053742;28;47403;-79
2023/04/12 11:01:31;;;;;;;;;2.00;0.67;;;;;22.65;54.18;99731.66;5079279;28;45342;-82
2023/04/12 11:04:06;;;;;;;;;0.00;0.00;;;;;22.59;52.10;99753.63;5077705;28;45434;-82
2023/04/12 11:06:56;;;;;;;;;0.00;0.00;;;;;22.56;51.56;99758.47;5052561;28;46343;-82
2023/04/12 11:09:29;;;;;;;;;0.67;0.67;;;;;22.33;51.08;99739.09;5083472;28;45407;-79
2023/04/12 11:12:11;;;;;;;;;0.00;0.00;;;;;22.28;52.47;99757.25;5084697;28;45311;-80
2023/04/12 11:14:42;;;;;;;;;0.00;0.00;;;;;22.30;52.10;99755.09;5083193;28;45342;-79
2023/04/12 11:17:07;;;;;;;;;0.00;0.00;;;;;22.39;49.70;99758.03;5083796;28;45393;-81
2023/04/12 11:19:36;;;;;;;;;0.33;0.33;;;;;22.51;49.06;99755.00;5084057;28;45443;-81
2023/04/12 11:22:07;;;;;;;;;0.00;0.00;;;;;22.43;46.79;99759.91;5065072;28;45523;-77
2023/04/12 11:24:36;;;;;;;;;1.00;1.00;;;;;22.05;49.71;99768.44;5081820;28;45229;-81
2023/04/12 11:27:02;;;;;;;;;0.00;0.00;;;;;22.32;49.36;99766.44;5082049;28;45296;-81
2023/04/12 11:29:27;;;;;;;;;0.67;0.67;;;;;22.28;48.47;99757.25;5075622;28;45409;-80
2023/04/12 11:31:56;;;;;;;;;0.33;0.33;;;;;22.07;47.86;99760.03;5070456;28;45500;-81